Crab Orchard, West Virginia
Current Conditions -  °F | °C
As of 12:51 AM on Sunday 21 Dec 2014 (Local Time) from KBKW Reporting Station
Overcast Overcast  
Wind Chill: 32°   Ceiling: 3500
Heat Index: 32°   Visibility: 10mi
Dew Point: 26°   Wind: 0mph
Humidity: 79%   Direction: NA
Pressure: 30.18"   Gusts: NA
Location:  37.74°N, 81.23°W
Report Text: KBKW 210551Z AUTO 00000KT 10SM OVC035 00/M03 A3018 RMK AO2 SLP244 T00001033 10006 21006 58003
Loading
Personal Weather Stations






























Interactive Weather Map New forecast layout! Learn more

10-Day Weather Forecast

Advertisements
Track Severe Weather on mobile